createdAt,value
2023-01-08T00:01:57.151Z,100404.06
2023-01-08T00:04:27.126Z,100400.97
2023-01-08T00:06:57.200Z,100399.13
2023-01-08T00:09:27.113Z,100396.22
2023-01-08T00:11:57.080Z,100389.88
2023-01-08T00:14:27.018Z,100378.91
2023-01-08T00:16:59.736Z,100381.22
2023-01-08T00:19:31.212Z,100384.03
2023-01-08T00:22:01.226Z,100372.03
2023-01-08T00:24:31.249Z,100363.31
2023-01-08T00:27:01.175Z,100362.91
2023-01-08T00:29:31.282Z,100369.06
2023-01-08T00:32:03.785Z,100377.16
2023-01-08T00:34:33.740Z,100379.88
2023-01-08T00:37:03.699Z,100371.66
2023-01-08T00:39:33.691Z,100370.19
2023-01-08T00:42:03.604Z,100364.81
2023-01-08T00:44:33.704Z,100359.22
2023-01-08T00:47:06.281Z,100353.56
2023-01-08T00:49:36.231Z,100349.78
2023-01-08T00:52:07.694Z,100348.94
2023-01-08T00:54:37.732Z,100334.88
2023-01-08T00:57:07.673Z,100325.09
2023-01-08T00:59:37.612Z,100326.25
2023-01-08T01:02:10.485Z,100333.84
2023-01-08T01:04:40.488Z,100335.38
2023-01-08T01:07:10.441Z,100328.91
2023-01-08T01:09:40.659Z,100326.06
2023-01-08T01:12:11.339Z,100328.25
2023-01-08T01:14:41.743Z,100323.47
2023-01-08T01:17:15.028Z,100317.03
2023-01-08T01:19:45.322Z,100323.16
2023-01-08T01:22:15.402Z,100314.47
2023-01-08T01:24:45.460Z,100316.84
2023-01-08T01:27:15.756Z,100315.69
2023-01-08T01:29:45.834Z,100327.03
2023-01-08T01:32:18.868Z,100337.50
2023-01-08T01:34:48.801Z,100327.75
2023-01-08T01:37:18.896Z,100319.25
2023-01-08T01:39:49.456Z,100304.84
2023-01-08T01:42:33.240Z,100305.34
2023-01-08T01:45:03.271Z,100302.28
2023-01-08T01:47:39.382Z,100303.38
2023-01-08T01:50:15.130Z,100306.50
2023-01-08T01:52:49.181Z,100297.06
2023-01-08T01:55:20.318Z,100302.84
2023-01-08T01:57:56.082Z,100310.44
2023-01-08T02:00:26.734Z,100305.81
2023-01-08T02:03:00.136Z,100294.44
2023-01-08T02:05:37.736Z,100284.69
2023-01-08T02:08:13.061Z,100284.38
2023-01-08T02:10:51.152Z,100289.00
2023-01-08T02:13:26.200Z,100280.44
2023-01-08T02:16:01.463Z,100279.28
2023-01-08T02:18:41.252Z,100267.78
2023-01-08T02:21:14.022Z,100262.94
2023-01-08T02:23:49.859Z,100261.13
2023-01-08T02:26:26.508Z,100259.69
2023-01-08T02:29:01.204Z,100258.91
2023-01-08T02:31:33.448Z,100253.56
2023-01-08T02:34:03.532Z,100255.16
2023-01-08T02:36:40.789Z,100242.41
2023-01-08T02:39:19.574Z,100227.34
2023-01-08T02:41:59.795Z,100223.25
2023-01-08T02:44:38.262Z,100233.41
2023-01-08T02:47:15.057Z,100233.16
2023-01-08T02:49:48.459Z,100229.88
2023-01-08T02:52:20.958Z,100235.81
2023-01-08T02:54:51.692Z,100232.19
2023-01-08T02:57:24.779Z,100231.84
2023-01-08T02:59:55.673Z,100227.22
2023-01-08T03:02:26.162Z,100211.91
2023-01-08T03:05:00.790Z,100206.94
2023-01-08T03:07:30.704Z,100213.56
2023-01-08T03:10:01.021Z,100200.16
2023-01-08T03:12:46.875Z,100197.97
2023-01-08T03:15:25.530Z,100191.66
2023-01-08T03:18:00.311Z,100195.63
2023-01-08T03:20:31.293Z,100192.00
2023-01-08T03:23:06.011Z,100192.00
2023-01-08T03:25:40.010Z,100205.53
2023-01-08T03:28:17.001Z,100205.38
2023-01-08T03:30:48.803Z,100203.56
2023-01-08T03:33:23.131Z,100202.91
2023-01-08T03:35:56.635Z,100206.72
2023-01-08T03:38:30.206Z,100199.59
2023-01-08T03:41:04.620Z,100191.31
2023-01-08T03:43:37.231Z,100179.75
2023-01-08T03:46:13.068Z,100173.81
2023-01-08T03:48:44.089Z,100181.06
2023-01-08T03:51:14.318Z,100176.59
2023-01-08T03:53:44.224Z,100174.63
2023-01-08T03:56:14.242Z,100172.44
2023-01-08T03:58:47.012Z,100176.22
2023-01-08T04:01:17.069Z,100177.88
2023-01-08T04:03:47.208Z,100175.22
2023-01-08T04:06:17.121Z,100181.00
2023-01-08T04:08:49.970Z,100181.31
2023-01-08T04:11:20.094Z,100176.53
2023-01-08T04:13:52.615Z,100188.03
2023-01-08T04:16:25.408Z,100185.44
2023-01-08T04:18:55.382Z,100185.06
2023-01-08T04:21:25.341Z,100181.66
2023-01-08T04:23:55.287Z,100186.28
2023-01-08T04:26:25.276Z,100176.03
2023-01-08T04:28:57.811Z,100182.03
2023-01-08T04:31:27.800Z,100178.34
2023-01-08T04:33:57.847Z,100184.94
2023-01-08T04:36:27.776Z,100176.19
2023-01-08T04:38:58.802Z,100180.25
2023-01-08T04:41:28.745Z,100171.91
2023-01-08T04:44:01.335Z,100154.09
2023-01-08T04:46:31.286Z,100145.03
2023-01-08T04:49:01.378Z,100147.34
2023-01-08T04:51:31.442Z,100144.03
2023-01-08T04:54:01.380Z,100142.25
2023-01-08T04:56:31.410Z,100138.13
2023-01-08T04:59:04.096Z,100132.84
2023-01-08T05:01:34.097Z,100117.78
2023-01-08T05:04:06.196Z,100121.09
2023-01-08T05:06:36.672Z,100126.22
2023-01-08T05:09:06.950Z,100121.91
2023-01-08T05:11:37.444Z,100132.59
2023-01-08T05:14:09.956Z,100128.31
2023-01-08T05:16:39.898Z,100129.47
2023-01-08T05:19:10.030Z,100111.00
2023-01-08T05:21:40.139Z,100120.56
2023-01-08T05:24:10.559Z,100129.69
2023-01-08T05:26:40.652Z,100118.13
2023-01-08T05:29:13.255Z,100122.91
2023-01-08T05:31:43.252Z,100126.06
2023-01-08T05:34:13.199Z,100113.81
2023-01-08T05:36:46.017Z,100118.94
2023-01-08T05:39:15.953Z,100121.75
2023-01-08T05:41:45.966Z,100113.28
2023-01-08T05:44:18.563Z,100108.97
2023-01-08T05:46:48.661Z,100115.78
2023-01-08T05:49:18.620Z,100112.13
2023-01-08T05:51:48.611Z,100105.16
2023-01-08T05:54:18.652Z,100109.63
2023-01-08T05:56:48.566Z,100100.22
2023-01-08T05:59:21.080Z,100093.94
2023-01-08T06:01:52.146Z,100096.75
2023-01-08T06:04:22.236Z,100089.38
2023-01-08T06:06:54.575Z,100089.81
2023-01-08T06:09:24.523Z,100083.38
2023-01-08T06:11:58.071Z,100086.03
2023-01-08T06:14:30.681Z,100093.63
2023-01-08T06:17:00.599Z,100086.34
2023-01-08T06:19:30.602Z,100088.16
2023-01-08T06:22:00.530Z,100086.19
2023-01-08T06:24:30.489Z,100086.84
2023-01-08T06:27:05.534Z,100085.19
2023-01-08T06:29:38.049Z,100076.78
2023-01-08T06:32:08.302Z,100083.91
2023-01-08T06:34:38.207Z,100077.97
2023-01-08T06:37:08.125Z,100072.03
2023-01-08T06:39:38.051Z,100070.38
2023-01-08T06:42:08.030Z,100069.72
2023-01-08T06:44:43.351Z,100076.97
2023-01-08T06:47:13.296Z,100074.00
2023-01-08T06:49:43.220Z,100067.72
2023-01-08T06:52:13.888Z,100069.88
2023-01-08T06:54:47.867Z,100069.50
2023-01-08T06:57:20.790Z,100073.13
2023-01-08T06:59:53.396Z,100071.47
2023-01-08T07:02:25.516Z,100077.41
2023-01-08T07:05:18.973Z,100077.03
2023-01-08T07:07:48.946Z,100077.91
2023-01-08T07:10:20.268Z,100084.03
2023-01-08T07:12:50.502Z,100084.88
2023-01-08T07:15:23.189Z,100087.19
2023-01-08T07:17:53.087Z,100083.91
2023-01-08T07:20:23.046Z,100079.63
2023-01-08T07:22:52.974Z,100083.03
2023-01-08T07:25:24.673Z,100065.41
2023-01-08T07:27:55.779Z,100070.69
2023-01-08T07:30:30.494Z,100075.59
2023-01-08T07:33:09.704Z,100078.41
2023-01-08T07:35:39.773Z,100075.16
2023-01-08T07:38:09.749Z,100077.03
2023-01-08T07:40:39.733Z,100077.09
2023-01-08T07:43:50.147Z,100081.34
2023-01-08T07:46:25.795Z,100072.28
2023-01-08T07:48:55.797Z,100075.00
2023-01-08T07:51:26.317Z,100087.09
2023-01-08T07:53:56.475Z,100091.56
2023-01-08T07:56:27.566Z,100092.56
2023-01-08T07:58:57.489Z,100080.88
2023-01-08T08:01:30.193Z,100083.53
2023-01-08T08:04:03.300Z,100080.56
2023-01-08T08:06:33.259Z,100083.19
2023-01-08T08:09:03.828Z,100084.91
2023-01-08T08:11:33.791Z,100075.59
2023-01-08T08:14:03.774Z,100070.78
2023-01-08T08:16:36.603Z,100064.03
2023-01-08T08:19:08.867Z,100067.06
2023-01-08T08:21:38.794Z,100061.78
2023-01-08T08:24:09.476Z,100063.72
2023-01-08T08:26:39.433Z,100063.06
2023-01-08T08:29:09.405Z,100068.88
2023-01-08T08:31:42.780Z,100073.19
2023-01-08T08:34:12.843Z,100072.16
2023-01-08T08:36:42.913Z,100068.69
2023-01-08T08:39:12.840Z,100068.34
2023-01-08T08:41:42.883Z,100059.09
2023-01-08T08:44:12.886Z,100062.28
2023-01-08T08:46:45.552Z,100052.19
2023-01-08T08:49:15.605Z,100044.91
2023-01-08T08:51:45.555Z,100038.13
2023-01-08T08:54:15.692Z,100048.91
2023-01-08T08:56:45.616Z,100041.94
2023-01-08T08:59:15.836Z,100041.63
2023-01-08T09:01:48.820Z,100034.81
2023-01-08T09:04:18.787Z,100039.13
2023-01-08T09:06:48.709Z,100043.75
2023-01-08T09:09:18.693Z,100048.06
2023-01-08T09:11:48.594Z,100046.56
2023-01-08T09:14:18.620Z,100037.97
2023-01-08T09:16:51.713Z,100016.81
2023-01-08T09:19:26.870Z,100025.41
2023-01-08T09:21:56.793Z,100021.94
2023-01-08T09:24:32.354Z,99999.44
2023-01-08T09:27:02.453Z,99989.47
2023-01-08T09:29:33.618Z,99988.97
2023-01-08T09:32:08.564Z,100019.38
2023-01-08T09:34:38.902Z,100036.47
2023-01-08T09:37:09.293Z,100039.59
2023-01-08T09:39:41.133Z,100049.38
2023-01-08T09:42:18.749Z,100046.41
2023-01-08T09:44:51.931Z,100037.81
2023-01-08T09:47:30.491Z,100044.25
2023-01-08T09:50:04.288Z,100046.06
2023-01-08T09:52:35.449Z,100027.06
2023-01-08T09:55:05.476Z,100041.94
2023-01-08T09:57:36.348Z,100046.06
2023-01-08T10:00:07.216Z,100053.84
2023-01-08T10:02:45.508Z,100053.00
2023-01-08T10:05:17.223Z,100054.66
2023-01-08T10:07:48.560Z,100046.06
2023-01-08T10:10:22.141Z,100046.91
2023-01-08T10:12:53.385Z,100036.63
2023-01-08T10:15:27.994Z,100022.06
2023-01-08T10:18:05.738Z,100010.84
2023-01-08T10:20:37.747Z,100000.91
2023-01-08T10:23:15.765Z,99995.97
2023-01-08T10:25:55.057Z,99988.03
2023-01-08T10:28:27.149Z,99997.78
2023-01-08T10:31:02.693Z,100000.09
2023-01-08T10:33:43.668Z,100006.22
2023-01-08T10:36:17.246Z,100006.91
2023-01-08T10:39:12.866Z,100011.50
2023-01-08T10:41:44.166Z,100003.88
2023-01-08T10:44:19.629Z,100019.59
2023-01-08T10:46:52.888Z,100017.78
2023-01-08T10:49:33.311Z,100012.50
2023-01-08T10:52:03.619Z,100005.75
2023-01-08T10:54:42.208Z,100004.88
2023-01-08T10:57:24.533Z,100010.34
2023-01-08T10:59:54.686Z,99997.94
2023-01-08T11:02:32.843Z,100004.72
2023-01-08T11:05:07.609Z,100002.25
2023-01-08T11:07:40.092Z,99996.94
2023-01-08T11:10:24.680Z,99985.59
2023-01-08T11:12:58.992Z,99985.91
2023-01-08T11:15:35.832Z,99969.84
2023-01-08T11:18:14.343Z,99981.75
2023-01-08T11:20:48.852Z,99973.31
2023-01-08T11:23:22.225Z,99959.78
2023-01-08T11:25:58.994Z,99955.16
2023-01-08T11:28:36.164Z,99960.38
2023-01-08T11:31:16.668Z,99954.13
2023-01-08T11:33:48.109Z,99955.38
2023-01-08T11:36:28.084Z,99962.19
2023-01-08T11:38:58.029Z,99949.97
2023-01-08T11:41:43.015Z,99934.69
2023-01-08T11:44:23.015Z,99934.03
2023-01-08T11:47:04.226Z,99942.66
2023-01-08T11:50:00.924Z,99938.28
2023-01-08T11:52:44.490Z,99935.63
2023-01-08T11:55:30.329Z,99934.16
2023-01-08T11:58:17.258Z,99932.50
2023-01-08T12:01:03.568Z,99933.78
2023-01-08T12:03:39.499Z,99935.72
2023-01-08T12:06:22.959Z,99924.06
2023-01-08T12:09:05.469Z,99915.31
2023-01-08T12:11:44.202Z,99917.25
2023-01-08T12:14:37.747Z,99905.38
2023-01-08T12:17:24.805Z,99905.03
2023-01-08T12:20:06.522Z,99903.06
2023-01-08T12:22:45.809Z,99901.91
2023-01-08T12:25:40.775Z,99893.84
2023-01-08T12:28:24.619Z,99899.16
2023-01-08T12:31:12.897Z,99897.97
2023-01-08T12:33:47.279Z,99886.09
2023-01-08T12:36:21.712Z,99888.75
2023-01-08T12:38:57.884Z,99893.69
2023-01-08T12:41:31.952Z,99891.59
2023-01-08T12:44:05.492Z,99883.88
2023-01-08T12:46:37.942Z,99886.47
2023-01-08T12:49:09.674Z,99894.34
2023-01-08T12:51:46.333Z,99890.81
2023-01-08T12:54:26.652Z,99888.41
2023-01-08T12:57:10.141Z,99895.78
2023-01-08T12:59:49.029Z,99891.09
2023-01-08T13:02:39.057Z,99881.84
2023-01-08T13:05:34.752Z,99877.00
2023-01-08T13:08:07.506Z,99894.81
2023-01-08T13:10:45.803Z,99881.03
2023-01-08T13:13:30.964Z,99874.53
2023-01-08T13:16:12.136Z,99878.75
2023-01-08T13:18:42.935Z,99876.00
2023-01-08T13:21:14.758Z,99874.47
2023-01-08T13:23:44.731Z,99873.16
2023-01-08T13:26:15.025Z,99881.34
2023-01-08T13:28:48.339Z,99871.75
2023-01-08T13:31:30.043Z,99870.56
2023-01-08T13:34:02.415Z,99871.69
2023-01-08T13:36:33.051Z,99867.91
2023-01-08T13:39:06.535Z,99864.56
2023-01-08T13:41:40.142Z,99865.66
2023-01-08T13:44:25.515Z,99865.88
2023-01-08T13:46:58.064Z,99869.16
2023-01-08T13:49:32.018Z,99854.63
2023-01-08T13:52:02.448Z,99856.66
2023-01-08T13:54:40.405Z,99851.75
2023-01-08T13:57:18.039Z,99860.63
2023-01-08T13:59:57.433Z,99862.28
2023-01-08T14:02:32.268Z,99867.91
2023-01-08T14:05:05.061Z,99855.44
2023-01-08T14:07:36.214Z,99854.75
2023-01-08T14:10:11.918Z,99858.34
2023-01-08T14:12:42.802Z,99854.91
2023-01-08T14:15:24.920Z,99857.09
2023-01-08T14:18:04.135Z,99854.53
2023-01-08T14:20:36.932Z,99853.78
2023-01-08T14:23:14.831Z,99849.88
2023-01-08T14:25:45.358Z,99850.53
2023-01-08T14:28:20.515Z,99853.34
2023-01-08T14:30:54.604Z,99852.00
2023-01-08T14:33:27.735Z,99849.38
2023-01-08T14:35:59.113Z,99848.66
2023-01-08T14:38:29.370Z,99852.97
2023-01-08T14:41:05.550Z,99847.84
2023-01-08T14:43:38.286Z,99849.53
2023-01-08T14:46:18.167Z,99849.41
2023-01-08T14:48:49.708Z,99839.94
2023-01-08T14:51:26.274Z,99852.75
2023-01-08T14:54:00.653Z,99844.94
2023-01-08T14:56:34.613Z,99848.06
2023-01-08T14:59:11.195Z,99842.59
2023-01-08T15:01:44.056Z,99841.41
2023-01-08T15:04:19.984Z,99842.78
2023-01-08T15:06:50.624Z,99843.03
2023-01-08T15:09:25.893Z,99829.94
2023-01-08T15:11:58.277Z,99829.63
2023-01-08T15:14:33.689Z,99833.06
2023-01-08T15:17:12.510Z,99823.25
2023-01-08T15:19:52.214Z,99816.63
2023-01-08T15:22:26.076Z,99813.84
2023-01-08T15:25:01.110Z,99814.84
2023-01-08T15:27:37.077Z,99810.00
2023-01-08T15:30:10.103Z,99818.56
2023-01-08T15:32:42.757Z,99819.34
2023-01-08T15:35:17.365Z,99821.31
2023-01-08T15:37:50.181Z,99823.69
2023-01-08T15:40:23.676Z,99826.94
2023-01-08T15:43:09.227Z,99825.72
2023-01-08T15:45:41.068Z,99823.69
2023-01-08T15:48:17.472Z,99818.75
2023-01-08T15:50:53.838Z,99820.88
2023-01-08T15:53:25.144Z,99824.28
2023-01-08T15:55:55.676Z,99827.38
2023-01-08T15:58:25.897Z,99826.03
2023-01-08T16:00:57.517Z,99829.69
2023-01-08T16:03:30.770Z,99833.91
2023-01-08T16:06:00.821Z,99828.75
2023-01-08T16:08:31.221Z,99837.56
2023-01-08T16:11:01.679Z,99838.16
2023-01-08T16:13:31.809Z,99844.75
2023-01-08T16:16:10.062Z,99838.03
2023-01-08T16:18:43.460Z,99836.22
2023-01-08T16:21:14.281Z,99837.97
2023-01-08T16:23:44.848Z,99836.13
2023-01-08T16:26:16.949Z,99835.69
2023-01-08T16:28:46.885Z,99837.69
2023-01-08T16:31:17.353Z,99830.19
2023-01-08T16:33:50.047Z,99842.63
2023-01-08T16:36:23.784Z,99835.00
2023-01-08T16:38:56.176Z,99824.25
2023-01-08T16:41:26.173Z,99826.06
2023-01-08T16:43:56.353Z,99817.94
2023-01-08T16:46:27.195Z,99812.47
2023-01-08T16:49:03.089Z,99816.41
2023-01-08T16:51:36.180Z,99816.75
2023-01-08T16:54:15.819Z,99811.59
2023-01-08T16:56:48.816Z,99805.38
2023-01-08T16:59:23.661Z,99803.88
2023-01-08T17:02:00.421Z,99796.47
2023-01-08T17:04:41.081Z,99793.50
2023-01-08T17:07:20.666Z,99798.44
2023-01-08T17:09:50.819Z,99802.06
2023-01-08T17:12:22.575Z,99784.91
2023-01-08T17:14:57.109Z,99784.19
2023-01-08T17:17:32.880Z,99782.44
2023-01-08T17:20:12.595Z,99783.13
2023-01-08T17:22:46.073Z,99777.66
2023-01-08T17:25:16.041Z,99774.91
2023-01-08T17:27:54.001Z,99785.34
2023-01-08T17:30:34.911Z,99774.31
2023-01-08T17:33:10.078Z,99768.22
2023-01-08T17:35:43.100Z,99769.00
2023-01-08T17:38:16.631Z,99769.38
2023-01-08T17:41:11.051Z,99763.25
2023-01-08T17:43:44.280Z,99761.09
2023-01-08T17:46:17.427Z,99771.50
2023-01-08T17:48:49.801Z,99767.09
2023-01-08T17:51:23.311Z,99764.72
2023-01-08T17:53:58.262Z,99759.31
2023-01-08T17:56:31.443Z,99770.84
2023-01-08T17:59:04.287Z,99762.78
2023-01-08T18:01:39.134Z,99758.56
2023-01-08T18:04:13.445Z,99741.38
2023-01-08T18:06:51.694Z,99747.16
2023-01-08T18:09:25.297Z,99749.66
2023-01-08T18:11:58.078Z,99751.84
2023-01-08T18:14:35.217Z,99750.38
2023-01-08T18:17:07.062Z,99751.09
2023-01-08T18:19:37.414Z,99745.09
2023-01-08T18:22:10.441Z,99753.25
2023-01-08T18:24:40.911Z,99735.09
2023-01-08T18:27:15.407Z,99745.84
2023-01-08T18:29:55.164Z,99751.09
2023-01-08T18:32:30.668Z,99748.56
2023-01-08T18:35:06.533Z,99747.69
2023-01-08T18:37:42.352Z,99741.84
2023-01-08T18:40:16.316Z,99743.53
2023-01-08T18:42:46.652Z,99744.91
2023-01-08T18:45:30.043Z,99745.41
2023-01-08T18:48:04.795Z,99745.59
2023-01-08T18:50:43.900Z,99726.78
2023-01-08T18:53:16.720Z,99725.06
2023-01-08T18:55:46.899Z,99726.06
2023-01-08T18:58:16.955Z,99719.09
2023-01-08T19:00:46.970Z,99724.25
2023-01-08T19:03:16.983Z,99712.69
2023-01-08T19:05:47.169Z,99717.31
2023-01-08T19:08:20.011Z,99712.63
2023-01-08T19:10:55.329Z,99710.16
2023-01-08T19:13:25.339Z,99707.41
2023-01-08T19:16:05.105Z,99709.72
2023-01-08T19:18:36.009Z,99704.72
2023-01-08T19:21:08.640Z,99720.63
2023-01-08T19:23:43.911Z,99717.50
2023-01-08T19:26:17.429Z,99720.69
2023-01-08T19:28:50.659Z,99704.97
2023-01-08T19:31:21.796Z,99704.16
2023-01-08T19:33:52.933Z,99704.28
2023-01-08T19:36:23.220Z,99702.81
2023-01-08T19:38:58.025Z,99696.84
2023-01-08T19:41:42.828Z,99697.56
2023-01-08T19:44:19.920Z,99704.50
2023-01-08T19:46:50.440Z,99703.84
2023-01-08T19:49:21.110Z,99696.78
2023-01-08T19:51:55.943Z,99705.34
2023-01-08T19:54:32.924Z,99702.59
2023-01-08T19:57:05.983Z,99700.72
2023-01-08T19:59:39.352Z,99701.84
2023-01-08T20:02:13.821Z,99691.13
2023-01-08T20:04:50.580Z,99695.75
2023-01-08T20:07:22.594Z,99681.94
2023-01-08T20:09:55.350Z,99681.03
2023-01-08T20:12:25.839Z,99683.31
2023-01-08T20:14:56.219Z,99689.63
2023-01-08T20:17:32.664Z,99675.59
2023-01-08T20:20:02.998Z,99679.41
2023-01-08T20:22:42.119Z,99682.88
2023-01-08T20:25:23.984Z,99663.69
2023-01-08T20:27:57.595Z,99671.97
2023-01-08T20:30:30.364Z,99663.41
2023-01-08T20:33:06.074Z,99660.09
2023-01-08T20:35:39.214Z,99660.41
2023-01-08T20:38:11.436Z,99655.47
2023-01-08T20:40:49.652Z,99657.75
2023-01-08T20:43:28.013Z,99658.75
2023-01-08T20:45:58.097Z,99652.47
2023-01-08T20:48:29.999Z,99648.38
2023-01-08T20:51:04.002Z,99647.19
2023-01-08T20:53:36.394Z,99648.53
2023-01-08T20:56:11.425Z,99657.31
2023-01-08T20:58:43.612Z,99650.34
2023-01-08T21:01:15.558Z,99644.59
2023-01-08T21:03:46.658Z,99655.50
2023-01-08T21:06:19.175Z,99651.56
2023-01-08T21:08:51.438Z,99649.44
2023-01-08T21:11:24.670Z,99642.50
2023-01-08T21:13:54.991Z,99641.31
2023-01-08T21:16:28.438Z,99636.31
2023-01-08T21:18:59.864Z,99633.69
2023-01-08T21:21:32.949Z,99623.94
2023-01-08T21:24:05.539Z,99625.56
2023-01-08T21:26:39.373Z,99623.59
2023-01-08T21:29:10.687Z,99628.25
2023-01-08T21:31:41.462Z,99630.00
2023-01-08T21:34:13.996Z,99628.38
2023-01-08T21:36:44.125Z,99619.09
2023-01-08T21:39:14.288Z,99609.34
2023-01-08T21:41:59.280Z,99603.59
2023-01-08T21:44:42.116Z,99597.22
2023-01-08T21:47:14.385Z,99599.31
2023-01-08T21:49:45.055Z,99599.47
2023-01-08T21:52:27.584Z,99600.81
2023-01-08T21:54:58.280Z,99600.94
2023-01-08T21:57:31.251Z,99596.78
2023-01-08T22:00:01.167Z,99590.94
2023-01-08T22:02:31.333Z,99590.59
2023-01-08T22:05:02.298Z,99582.44
2023-01-08T22:07:32.455Z,99575.03
2023-01-08T22:10:03.660Z,99569.53
2023-01-08T22:12:37.828Z,99574.63
2023-01-08T22:15:09.763Z,99576.44
2023-01-08T22:17:39.732Z,99563.00
2023-01-08T22:20:10.677Z,99554.09
2023-01-08T22:22:41.325Z,99553.50
2023-01-08T22:25:12.036Z,99552.84
2023-01-08T22:27:46.689Z,99538.66
2023-01-08T22:30:16.866Z,99540.16
2023-01-08T22:32:46.921Z,99533.75
2023-01-08T22:35:17.106Z,99535.25
2023-01-08T22:37:47.270Z,99531.16
2023-01-08T22:40:17.343Z,99539.81
2023-01-08T22:42:50.021Z,99542.44
2023-01-08T22:45:20.219Z,99532.13
2023-01-08T22:47:50.105Z,99530.09
2023-01-08T22:50:20.374Z,99530.78
2023-01-08T22:52:50.459Z,99533.75
2023-01-08T22:55:20.759Z,99532.69
2023-01-08T22:57:54.585Z,99531.69
2023-01-08T23:00:25.071Z,99522.88
2023-01-08T23:02:55.080Z,99521.31
2023-01-08T23:05:25.111Z,99529.56
2023-01-08T23:07:55.056Z,99529.22
2023-01-08T23:10:25.037Z,99513.38
2023-01-08T23:12:57.951Z,99508.66
2023-01-08T23:15:27.988Z,99506.31
2023-01-08T23:17:57.908Z,99515.50
2023-01-08T23:20:27.840Z,99502.09
2023-01-08T23:22:57.808Z,99498.56
2023-01-08T23:25:30.101Z,99508.41
2023-01-08T23:28:02.673Z,99509.53
2023-01-08T23:30:32.908Z,99499.53
2023-01-08T23:33:02.995Z,99483.34
2023-01-08T23:35:33.062Z,99479.56
2023-01-08T23:38:03.229Z,99484.72
2023-01-08T23:40:33.323Z,99490.19
2023-01-08T23:43:06.223Z,99475.72
2023-01-08T23:45:37.970Z,99467.91
2023-01-08T23:48:09.058Z,99474.38
2023-01-08T23:50:39.435Z,99475.84
2023-01-08T23:53:09.502Z,99480.94
2023-01-08T23:55:39.462Z,99480.84
2023-01-08T23:58:12.286Z,99469.81
